Dennison, MN (55018)

4:32 AM CST on February 12, 2016 (GMT -0600)
Nerstrand | | Change Station
CLOSE
Current Station
Personal Weather Station
Location: Nerstrand, MN
Elevation: 1201 ft
Nearby Weather Stations
Active Advisory: Wind Chill Advisory

Elev 1201 ft 44.34 °N, 93.07 °W | Updated 9 seconds ago

Overcast
Overcast
12.9 °F
Feels Like 13 °F
N
2.7
Wind Variable Wind from NNW
Gusts 4.9 mph

Today
High -- | Low -- °F
--% Chance of Precip.
Yesterday
High -- | Low -- °F
Precip. -- in
Pressure 30.20 in
Visibility 10.0 miles
Clouds Overcast 3800 ft
Windchill 13 °F
Dew Point 3 °F
Humidity 65%
Rainfall 0.00 in
Snow Depth Not available.
7:16 AM 5:36 PM
Waxing Crescent, 19% visible
METAR KSYN 121015Z AUTO 31008KT 10SM OVC038 M10/M13 A3020 RMK AO2 T11001127
Pressure 30.20 in
Visibility 10.0 miles
Clouds Overcast 3800 ft
Windchill 13 °F
Dew Point 3 °F
Humidity 65%
Rainfall 0.00 in
Snow Depth Not available.
7:16 AM 5:36 PM
Waxing Crescent, 19% visible
METAR KSYN 121015Z AUTO 31008KT 10SM OVC038 M10/M13 A3020 RMK AO2 T11001127

10-Day Weather Forecast

Almanac

Astronomy

Feb. 12, 2016 Rise Set
Actual Time
Civil Twilight
Nautical Twilight
Astronomical Twilight
Moon
Length of Visible Light
Length of Day
Tomorrow will be .
, % of the Moon is Illuminated

Today's Extremes

State Highs State Lows

Community

WunderPhotos

Upload Photos

1,892,289 photos uploaded!

WunderBlog® & News

Nearby

Air Quality

  Air Quality AQ Index Pollutant
Not available.

Snow Depth

Station Depth Elevation

Earthquake Activity

City Distance Mag. Time & Date
Minimum magnitude displayed is 2.5.

Coastal Water Temperatures

Place Temperature

Stations

Nearby Weather Stations

Station Location Temp. Windchill Dew Point Humidity Wind Precip. Elev Updated Type
                   

Watches & Warnings

Wind Chill Advisory
Issued: 3:22 AM CST Feb. 12, 2016 – National Weather Service

... Wind Chill Advisory in effect from 6 PM this evening to 8 am
CST Saturday...

The National Weather Service in Twin Cities/Chanhassen has issued
a Wind Chill Advisory... which is in effect from 6 PM this evening
to 8 am CST Saturday.

* Wind chill values... 25 to 30 below zero developing this evening
and continuing until mid morning Saturday.

Precautionary/preparedness actions...

A Wind Chill Advisory means that very cold air and strong winds
will combine to generate low wind chills. This will result in
frostbite and lead to hypothermia if precautions are not taken.
When venturing outdoors... make sure you wear a hat and gloves.